KDED

Deland Municipal-Sidney H Taylor Field Airport

Deland, Florida, USA
METAR KDED 141315Z AUTO 16005KT 10SM CLR 27/23 A3008 RMK AO2
Observed Flight Rules
Aug-14 @ 13:15 UTC (26 minutes ago) Visual Flight Rules
Wind Visibility Clouds
160° at 5 knots 10 miles
  • Clear skies
Temperatures Readings
Current 27°C / 81°F
Dewpoint 23°C / 73°F
Humidity 79%
Altimeter 30.08" Hg
Pressure 1019 hPa
Elevation 24
METAR KDED 141315Z AUTO 16005KT 10SM CLR 27/23 A3008 RMK AO2
Observed Flight Rules
Aug-14 @ 13:15 UTC
(26 minutes ago)
VFR
Wind Visibility
160° at 5 knots 10 miles
Clouds
  • Clear skies
Temperature Dewpoint
27°C / 81°F 23°C / 73°F
Humidity Altimeter Pressure
79% 30.08" Hg 1019 hPa